Otter Rock, Oregon
Current Conditions -  °F | °C
As of 11:55 AM on Tuesday 21 Oct 2014 (Local Time) from KONP Reporting Station
Clear Clear  
Wind Chill: 61°   Ceiling: Unl
Heat Index: 61°   Visibility: 7mi
Dew Point: 55°   Wind: 14mph
Humidity: 82%   Direction: 190°S
Pressure: 30.01"   Gusts: 25mph
Location:  44.75°N, 124.06°W
Report Text: KONP 211855Z AUTO 19012G22KT 7SM CLR 16/13 A3001 RMK AO2
Loading
Personal Weather Stations






























Interactive Weather Map
Tropical Storm Tracking
New forecast layout! Learn more

10-Day Weather Forecast

Advertisements
Track Severe Weather on mobile